sensor_id;sensor_type;location;lat;lon;timestamp;P1;durP1;ratioP1;P2;durP2;ratioP2
1751;SDS011;873;47.696;8.068;2023-07-02T00:00:36;2.80;;;1.10;;
1751;SDS011;873;47.696;8.068;2023-07-02T00:03:03;2.60;;;1.60;;
1751;SDS011;873;47.696;8.068;2023-07-02T00:05:29;1.23;;;1.13;;
1751;SDS011;873;47.696;8.068;2023-07-02T00:07:55;2.20;;;1.40;;
1751;SDS011;873;47.696;8.068;2023-07-02T00:10:21;1.00;;;0.90;;
1751;SDS011;873;47.696;8.068;2023-07-02T00:12:46;3.37;;;1.50;;
1751;SDS011;873;47.696;8.068;2023-07-02T00:15:12;1.30;;;1.20;;
1751;SDS011;873;47.696;8.068;2023-07-02T00:17:37;2.70;;;1.67;;
1751;SDS011;873;47.696;8.068;2023-07-02T00:20:06;2.50;;;1.53;;
1751;SDS011;873;47.696;8.068;2023-07-02T00:22:39;1.60;;;1.13;;
1751;SDS011;873;47.696;8.068;2023-07-02T00:25:07;2.43;;;1.30;;
1751;SDS011;873;47.696;8.068;2023-07-02T00:27:32;2.10;;;1.00;;
1751;SDS011;873;47.696;8.068;2023-07-02T00:29:58;2.47;;;1.60;;
1751;SDS011;873;47.696;8.068;2023-07-02T00:32:24;2.00;;;1.20;;
1751;SDS011;873;47.696;8.068;2023-07-02T00:34:49;2.77;;;1.33;;
1751;SDS011;873;47.696;8.068;2023-07-02T00:37:15;1.70;;;1.20;;
1751;SDS011;873;47.696;8.068;2023-07-02T00:39:40;1.43;;;1.03;;
1751;SDS011;873;47.696;8.068;2023-07-02T00:42:06;1.63;;;1.20;;
1751;SDS011;873;47.696;8.068;2023-07-02T00:44:33;2.67;;;1.30;;
1751;SDS011;873;47.696;8.068;2023-07-02T00:47:06;2.33;;;1.80;;
1751;SDS011;873;47.696;8.068;2023-07-02T00:49:33;2.33;;;1.30;;
1751;SDS011;873;47.696;8.068;2023-07-02T00:51:59;1.90;;;1.20;;
1751;SDS011;873;47.696;8.068;2023-07-02T00:54:27;1.20;;;1.07;;
1751;SDS011;873;47.696;8.068;2023-07-02T00:56:53;2.27;;;1.23;;
1751;SDS011;873;47.696;8.068;2023-07-02T00:59:18;2.53;;;1.20;;
1751;SDS011;873;47.696;8.068;2023-07-02T01:01:44;1.83;;;1.20;;
1751;SDS011;873;47.696;8.068;2023-07-02T01:04:16;2.27;;;1.50;;
1751;SDS011;873;47.696;8.068;2023-07-02T01:06:42;1.90;;;1.30;;
1751;SDS011;873;47.696;8.068;2023-07-02T01:09:09;1.83;;;1.17;;
1751;SDS011;873;47.696;8.068;2023-07-02T01:11:40;2.27;;;1.40;;
1751;SDS011;873;47.696;8.068;2023-07-02T01:16:48;1.87;;;1.00;;
1751;SDS011;873;47.696;8.068;2023-07-02T01:19:18;1.53;;;1.20;;
1751;SDS011;873;47.696;8.068;2023-07-02T01:21:47;1.60;;;1.40;;
1751;SDS011;873;47.696;8.068;2023-07-02T01:24:12;1.63;;;1.20;;
1751;SDS011;873;47.696;8.068;2023-07-02T01:26:39;2.20;;;1.37;;
1751;SDS011;873;47.696;8.068;2023-07-02T01:29:21;1.40;;;1.07;;
1751;SDS011;873;47.696;8.068;2023-07-02T01:31:47;2.00;;;1.30;;
1751;SDS011;873;47.696;8.068;2023-07-02T01:34:13;3.33;;;1.83;;
1751;SDS011;873;47.696;8.068;2023-07-02T01:36:39;2.50;;;1.40;;
1751;SDS011;873;47.696;8.068;2023-07-02T01:39:05;2.03;;;1.30;;
1751;SDS011;873;47.696;8.068;2023-07-02T01:44:17;1.60;;;1.27;;
1751;SDS011;873;47.696;8.068;2023-07-02T01:46:44;3.83;;;1.57;;
1751;SDS011;873;47.696;8.068;2023-07-02T01:49:10;4.20;;;1.60;;
1751;SDS011;873;47.696;8.068;2023-07-02T01:51:35;2.17;;;1.20;;
1751;SDS011;873;47.696;8.068;2023-07-02T01:54:01;2.37;;;1.30;;
1751;SDS011;873;47.696;8.068;2023-07-02T01:56:27;1.60;;;1.17;;
1751;SDS011;873;47.696;8.068;2023-07-02T01:58:53;2.20;;;1.67;;
1751;SDS011;873;47.696;8.068;2023-07-02T02:01:19;2.07;;;1.47;;
1751;SDS011;873;47.696;8.068;2023-07-02T02:03:44;1.90;;;1.23;;
1751;SDS011;873;47.696;8.068;2023-07-02T02:06:10;2.57;;;1.50;;
1751;SDS011;873;47.696;8.068;2023-07-02T02:08:35;1.77;;;1.20;;
1751;SDS011;873;47.696;8.068;2023-07-02T02:11:01;2.03;;;1.40;;
1751;SDS011;873;47.696;8.068;2023-07-02T02:13:26;4.77;;;1.30;;
1751;SDS011;873;47.696;8.068;2023-07-02T02:15:53;1.90;;;1.13;;
1751;SDS011;873;47.696;8.068;2023-07-02T02:18:19;3.00;;;1.70;;
1751;SDS011;873;47.696;8.068;2023-07-02T02:20:44;2.23;;;1.33;;
1751;SDS011;873;47.696;8.068;2023-07-02T02:23:10;1.63;;;1.10;;
1751;SDS011;873;47.696;8.068;2023-07-02T02:25:36;1.97;;;1.20;;
1751;SDS011;873;47.696;8.068;2023-07-02T02:28:01;2.13;;;1.20;;
1751;SDS011;873;47.696;8.068;2023-07-02T02:30:27;1.80;;;1.47;;
1751;SDS011;873;47.696;8.068;2023-07-02T02:32:52;1.30;;;1.10;;
1751;SDS011;873;47.696;8.068;2023-07-02T02:35:18;1.80;;;1.47;;
1751;SDS011;873;47.696;8.068;2023-07-02T02:37:43;2.23;;;1.20;;
1751;SDS011;873;47.696;8.068;2023-07-02T02:40:09;1.67;;;1.17;;
1751;SDS011;873;47.696;8.068;2023-07-02T02:42:35;2.27;;;1.50;;
1751;SDS011;873;47.696;8.068;2023-07-02T02:45:02;2.97;;;1.80;;
1751;SDS011;873;47.696;8.068;2023-07-02T02:47:28;3.03;;;1.53;;
1751;SDS011;873;47.696;8.068;2023-07-02T02:49:53;1.87;;;1.20;;
1751;SDS011;873;47.696;8.068;2023-07-02T02:52:19;2.37;;;1.10;;
1751;SDS011;873;47.696;8.068;2023-07-02T02:54:45;3.43;;;1.77;;
1751;SDS011;873;47.696;8.068;2023-07-02T02:57:11;1.70;;;1.03;;
1751;SDS011;873;47.696;8.068;2023-07-02T02:59:37;2.53;;;1.87;;
1751;SDS011;873;47.696;8.068;2023-07-02T03:02:02;3.37;;;1.37;;
1751;SDS011;873;47.696;8.068;2023-07-02T03:04:28;2.53;;;1.53;;
1751;SDS011;873;47.696;8.068;2023-07-02T03:06:54;1.60;;;1.30;;
1751;SDS011;873;47.696;8.068;2023-07-02T03:09:20;1.97;;;1.40;;
1751;SDS011;873;47.696;8.068;2023-07-02T03:11:46;2.53;;;1.27;;
1751;SDS011;873;47.696;8.068;2023-07-02T03:14:12;2.63;;;1.40;;
1751;SDS011;873;47.696;8.068;2023-07-02T03:16:38;2.33;;;1.40;;
1751;SDS011;873;47.696;8.068;2023-07-02T03:19:04;2.47;;;1.67;;
1751;SDS011;873;47.696;8.068;2023-07-02T03:21:29;4.97;;;2.50;;
1751;SDS011;873;47.696;8.068;2023-07-02T03:23:55;4.87;;;1.87;;
1751;SDS011;873;47.696;8.068;2023-07-02T03:26:21;3.57;;;2.00;;
1751;SDS011;873;47.696;8.068;2023-07-02T03:28:48;6.93;;;2.00;;
1751;SDS011;873;47.696;8.068;2023-07-02T03:31:13;4.00;;;2.00;;
1751;SDS011;873;47.696;8.068;2023-07-02T03:33:40;4.87;;;2.57;;
1751;SDS011;873;47.696;8.068;2023-07-02T03:36:05;3.90;;;2.17;;
1751;SDS011;873;47.696;8.068;2023-07-02T03:38:31;4.00;;;2.37;;
1751;SDS011;873;47.696;8.068;2023-07-02T03:40:57;4.00;;;2.57;;
1751;SDS011;873;47.696;8.068;2023-07-02T03:43:23;5.67;;;2.17;;
1751;SDS011;873;47.696;8.068;2023-07-02T03:45:51;7.17;;;3.10;;
1751;SDS011;873;47.696;8.068;2023-07-02T03:48:17;5.10;;;2.57;;
1751;SDS011;873;47.696;8.068;2023-07-02T03:50:42;4.60;;;2.57;;
1751;SDS011;873;47.696;8.068;2023-07-02T03:53:08;5.57;;;2.03;;
1751;SDS011;873;47.696;8.068;2023-07-02T03:55:33;7.07;;;2.60;;
1751;SDS011;873;47.696;8.068;2023-07-02T03:57:59;6.10;;;3.10;;
1751;SDS011;873;47.696;8.068;2023-07-02T04:00:24;6.03;;;2.33;;
1751;SDS011;873;47.696;8.068;2023-07-02T04:02:50;4.23;;;2.83;;
1751;SDS011;873;47.696;8.068;2023-07-02T04:05:15;5.90;;;2.63;;
1751;SDS011;873;47.696;8.068;2023-07-02T04:07:41;6.53;;;2.87;;
1751;SDS011;873;47.696;8.068;2023-07-02T04:10:07;8.00;;;3.10;;
1751;SDS011;873;47.696;8.068;2023-07-02T04:12:33;4.17;;;2.63;;
1751;SDS011;873;47.696;8.068;2023-07-02T04:14:58;7.83;;;3.63;;
1751;SDS011;873;47.696;8.068;2023-07-02T04:17:24;10.30;;;4.23;;
1751;SDS011;873;47.696;8.068;2023-07-02T04:19:49;9.23;;;4.30;;
1751;SDS011;873;47.696;8.068;2023-07-02T04:22:15;9.43;;;3.80;;
1751;SDS011;873;47.696;8.068;2023-07-02T04:24:40;7.00;;;3.80;;
1751;SDS011;873;47.696;8.068;2023-07-02T04:27:06;7.40;;;3.60;;
1751;SDS011;873;47.696;8.068;2023-07-02T04:29:32;11.67;;;3.97;;
1751;SDS011;873;47.696;8.068;2023-07-02T04:31:57;8.73;;;3.97;;
1751;SDS011;873;47.696;8.068;2023-07-02T04:34:23;9.07;;;4.27;;
1751;SDS011;873;47.696;8.068;2023-07-02T04:36:49;7.70;;;3.90;;
1751;SDS011;873;47.696;8.068;2023-07-02T04:39:14;13.30;;;4.53;;
1751;SDS011;873;47.696;8.068;2023-07-02T04:41:40;12.33;;;4.20;;
1751;SDS011;873;47.696;8.068;2023-07-02T04:44:05;9.80;;;3.90;;
1751;SDS011;873;47.696;8.068;2023-07-02T04:46:32;10.70;;;4.67;;
1751;SDS011;873;47.696;8.068;2023-07-02T04:48:58;8.17;;;3.33;;
1751;SDS011;873;47.696;8.068;2023-07-02T04:51:23;11.80;;;5.00;;
1751;SDS011;873;47.696;8.068;2023-07-02T04:53:49;9.77;;;4.03;;
1751;SDS011;873;47.696;8.068;2023-07-02T04:56:14;9.03;;;4.07;;
1751;SDS011;873;47.696;8.068;2023-07-02T04:58:40;7.67;;;4.43;;
1751;SDS011;873;47.696;8.068;2023-07-02T05:01:05;13.10;;;5.03;;
1751;SDS011;873;47.696;8.068;2023-07-02T05:03:31;14.63;;;5.40;;
1751;SDS011;873;47.696;8.068;2023-07-02T05:05:56;7.57;;;4.03;;
1751;SDS011;873;47.696;8.068;2023-07-02T05:08:22;6.90;;;3.90;;
1751;SDS011;873;47.696;8.068;2023-07-02T05:10:47;8.37;;;4.00;;
1751;SDS011;873;47.696;8.068;2023-07-02T05:13:13;9.43;;;4.13;;
1751;SDS011;873;47.696;8.068;2023-07-02T05:15:39;7.33;;;3.97;;
1751;SDS011;873;47.696;8.068;2023-07-02T05:18:04;8.73;;;4.93;;
1751;SDS011;873;47.696;8.068;2023-07-02T05:20:31;9.00;;;4.33;;
1751;SDS011;873;47.696;8.068;2023-07-02T05:22:57;9.83;;;4.57;;
1751;SDS011;873;47.696;8.068;2023-07-02T05:25:22;12.03;;;4.80;;
1751;SDS011;873;47.696;8.068;2023-07-02T05:27:48;13.43;;;5.27;;
1751;SDS011;873;47.696;8.068;2023-07-02T05:30:13;15.43;;;5.13;;
1751;SDS011;873;47.696;8.068;2023-07-02T05:32:39;9.40;;;4.33;;
1751;SDS011;873;47.696;8.068;2023-07-02T05:35:05;10.40;;;4.23;;
1751;SDS011;873;47.696;8.068;2023-07-02T05:37:31;11.33;;;5.53;;
1751;SDS011;873;47.696;8.068;2023-07-02T05:39:56;10.90;;;4.83;;
1751;SDS011;873;47.696;8.068;2023-07-02T05:42:22;12.03;;;5.53;;
1751;SDS011;873;47.696;8.068;2023-07-02T05:44:47;14.23;;;4.50;;
1751;SDS011;873;47.696;8.068;2023-07-02T05:47:13;11.80;;;4.47;;
1751;SDS011;873;47.696;8.068;2023-07-02T05:49:38;10.57;;;4.40;;
1751;SDS011;873;47.696;8.068;2023-07-02T05:52:04;10.53;;;5.63;;
1751;SDS011;873;47.696;8.068;2023-07-02T05:54:29;10.10;;;4.77;;
1751;SDS011;873;47.696;8.068;2023-07-02T05:56:55;9.13;;;5.33;;
1751;SDS011;873;47.696;8.068;2023-07-02T05:59:20;8.20;;;4.27;;
1751;SDS011;873;47.696;8.068;2023-07-02T06:01:46;12.50;;;5.23;;
1751;SDS011;873;47.696;8.068;2023-07-02T06:04:11;9.30;;;4.30;;
1751;SDS011;873;47.696;8.068;2023-07-02T06:06:37;10.63;;;4.70;;
1751;SDS011;873;47.696;8.068;2023-07-02T06:09:02;11.97;;;5.20;;
1751;SDS011;873;47.696;8.068;2023-07-02T06:11:29;8.10;;;4.10;;
1751;SDS011;873;47.696;8.068;2023-07-02T06:13:54;13.63;;;6.10;;
1751;SDS011;873;47.696;8.068;2023-07-02T06:16:20;10.20;;;4.97;;
1751;SDS011;873;47.696;8.068;2023-07-02T06:18:45;9.43;;;4.90;;
1751;SDS011;873;47.696;8.068;2023-07-02T06:21:11;12.90;;;5.93;;
1751;SDS011;873;47.696;8.068;2023-07-02T06:23:40;11.27;;;4.63;;
1751;SDS011;873;47.696;8.068;2023-07-02T06:26:07;11.33;;;4.87;;
1751;SDS011;873;47.696;8.068;2023-07-02T06:28:33;9.43;;;5.07;;
1751;SDS011;873;47.696;8.068;2023-07-02T06:30:59;11.03;;;5.40;;
1751;SDS011;873;47.696;8.068;2023-07-02T06:33:24;10.23;;;5.50;;
1751;SDS011;873;47.696;8.068;2023-07-02T06:35:50;11.87;;;4.87;;
1751;SDS011;873;47.696;8.068;2023-07-02T06:38:15;10.80;;;4.90;;
1751;SDS011;873;47.696;8.068;2023-07-02T06:40:41;10.43;;;3.90;;
1751;SDS011;873;47.696;8.068;2023-07-02T06:43:06;10.23;;;5.57;;
1751;SDS011;873;47.696;8.068;2023-07-02T06:45:32;9.47;;;4.80;;
1751;SDS011;873;47.696;8.068;2023-07-02T06:47:57;9.83;;;4.90;;
1751;SDS011;873;47.696;8.068;2023-07-02T06:50:23;11.43;;;4.93;;
1751;SDS011;873;47.696;8.068;2023-07-02T06:52:48;15.57;;;5.27;;
1751;SDS011;873;47.696;8.068;2023-07-02T06:55:14;10.63;;;5.47;;
1751;SDS011;873;47.696;8.068;2023-07-02T06:57:43;11.13;;;5.27;;
1751;SDS011;873;47.696;8.068;2023-07-02T07:00:11;15.27;;;5.53;;
1751;SDS011;873;47.696;8.068;2023-07-02T07:02:38;10.20;;;4.93;;
1751;SDS011;873;47.696;8.068;2023-07-02T07:05:03;12.20;;;5.10;;
1751;SDS011;873;47.696;8.068;2023-07-02T07:07:29;12.93;;;5.50;;
1751;SDS011;873;47.696;8.068;2023-07-02T07:09:55;13.53;;;5.77;;
1751;SDS011;873;47.696;8.068;2023-07-02T07:12:20;7.30;;;4.57;;
1751;SDS011;873;47.696;8.068;2023-07-02T07:14:46;11.33;;;6.10;;
1751;SDS011;873;47.696;8.068;2023-07-02T07:17:11;13.20;;;5.67;;
1751;SDS011;873;47.696;8.068;2023-07-02T07:19:37;10.63;;;5.27;;
1751;SDS011;873;47.696;8.068;2023-07-02T07:22:02;12.03;;;4.80;;
1751;SDS011;873;47.696;8.068;2023-07-02T07:24:28;9.93;;;4.90;;
1751;SDS011;873;47.696;8.068;2023-07-02T07:26:54;13.50;;;5.00;;
1751;SDS011;873;47.696;8.068;2023-07-02T07:29:19;14.17;;;6.00;;
1751;SDS011;873;47.696;8.068;2023-07-02T07:31:45;14.63;;;5.60;;
1751;SDS011;873;47.696;8.068;2023-07-02T07:34:11;11.50;;;5.10;;
1751;SDS011;873;47.696;8.068;2023-07-02T07:36:36;13.40;;;5.73;;
1751;SDS011;873;47.696;8.068;2023-07-02T07:39:02;13.80;;;5.67;;
1751;SDS011;873;47.696;8.068;2023-07-02T07:41:28;15.07;;;6.27;;
1751;SDS011;873;47.696;8.068;2023-07-02T07:43:53;10.47;;;5.87;;
1751;SDS011;873;47.696;8.068;2023-07-02T07:46:19;11.27;;;6.00;;
1751;SDS011;873;47.696;8.068;2023-07-02T07:48:44;13.57;;;5.93;;
1751;SDS011;873;47.696;8.068;2023-07-02T07:51:10;11.60;;;5.63;;
1751;SDS011;873;47.696;8.068;2023-07-02T07:53:39;12.47;;;5.63;;
1751;SDS011;873;47.696;8.068;2023-07-02T07:56:04;12.57;;;5.87;;
1751;SDS011;873;47.696;8.068;2023-07-02T07:58:30;12.43;;;5.23;;
1751;SDS011;873;47.696;8.068;2023-07-02T08:00:57;14.37;;;6.20;;
1751;SDS011;873;47.696;8.068;2023-07-02T08:03:22;15.97;;;5.97;;
1751;SDS011;873;47.696;8.068;2023-07-02T08:05:48;15.77;;;7.53;;
1751;SDS011;873;47.696;8.068;2023-07-02T08:08:14;12.40;;;6.30;;
1751;SDS011;873;47.696;8.068;2023-07-02T08:10:39;10.67;;;5.53;;
1751;SDS011;873;47.696;8.068;2023-07-02T08:13:05;13.83;;;6.27;;
1751;SDS011;873;47.696;8.068;2023-07-02T08:15:30;11.87;;;5.90;;
1751;SDS011;873;47.696;8.068;2023-07-02T08:17:56;10.10;;;6.03;;
1751;SDS011;873;47.696;8.068;2023-07-02T08:20:23;9.33;;;5.47;;
1751;SDS011;873;47.696;8.068;2023-07-02T08:22:50;10.47;;;5.30;;
1751;SDS011;873;47.696;8.068;2023-07-02T08:25:16;15.30;;;6.37;;
1751;SDS011;873;47.696;8.068;2023-07-02T08:27:44;12.07;;;5.53;;
1751;SDS011;873;47.696;8.068;2023-07-02T08:30:09;16.93;;;6.30;;
1751;SDS011;873;47.696;8.068;2023-07-02T08:32:35;12.03;;;6.67;;
1751;SDS011;873;47.696;8.068;2023-07-02T08:35:01;13.47;;;5.87;;
1751;SDS011;873;47.696;8.068;2023-07-02T08:37:27;16.37;;;5.40;;
1751;SDS011;873;47.696;8.068;2023-07-02T08:39:56;11.57;;;5.80;;
1751;SDS011;873;47.696;8.068;2023-07-02T08:42:22;15.00;;;6.27;;
1751;SDS011;873;47.696;8.068;2023-07-02T08:44:48;8.63;;;5.73;;
1751;SDS011;873;47.696;8.068;2023-07-02T08:47:18;14.90;;;5.47;;
1751;SDS011;873;47.696;8.068;2023-07-02T08:49:43;8.83;;;4.87;;
1751;SDS011;873;47.696;8.068;2023-07-02T08:52:10;12.47;;;5.67;;
1751;SDS011;873;47.696;8.068;2023-07-02T08:54:36;10.00;;;5.43;;
1751;SDS011;873;47.696;8.068;2023-07-02T08:57:01;12.37;;;6.17;;
1751;SDS011;873;47.696;8.068;2023-07-02T08:59:30;13.17;;;6.10;;
1751;SDS011;873;47.696;8.068;2023-07-02T09:01:56;12.87;;;6.57;;
1751;SDS011;873;47.696;8.068;2023-07-02T09:04:22;12.27;;;6.73;;
1751;SDS011;873;47.696;8.068;2023-07-02T09:07:02;11.00;;;5.73;;
1751;SDS011;873;47.696;8.068;2023-07-02T09:09:29;14.27;;;5.77;;
1751;SDS011;873;47.696;8.068;2023-07-02T09:11:55;13.77;;;5.57;;
1751;SDS011;873;47.696;8.068;2023-07-02T09:14:24;11.90;;;5.37;;
1751;SDS011;873;47.696;8.068;2023-07-02T09:17:03;11.07;;;5.97;;
1751;SDS011;873;47.696;8.068;2023-07-02T09:19:31;13.77;;;5.93;;
1751;SDS011;873;47.696;8.068;2023-07-02T09:21:58;13.87;;;6.27;;
1751;SDS011;873;47.696;8.068;2023-07-02T09:24:25;10.40;;;5.53;;
1751;SDS011;873;47.696;8.068;2023-07-02T09:26:52;11.17;;;5.93;;
1751;SDS011;873;47.696;8.068;2023-07-02T09:29:27;10.70;;;5.50;;
1751;SDS011;873;47.696;8.068;2023-07-02T09:31:55;10.40;;;5.77;;
1751;SDS011;873;47.696;8.068;2023-07-02T09:34:33;11.73;;;6.03;;
1751;SDS011;873;47.696;8.068;2023-07-02T09:37:00;11.07;;;5.57;;
1751;SDS011;873;47.696;8.068;2023-07-02T09:39:29;10.37;;;5.40;;
1751;SDS011;873;47.696;8.068;2023-07-02T09:41:57;10.13;;;5.70;;
1751;SDS011;873;47.696;8.068;2023-07-02T09:44:27;10.07;;;5.93;;
1751;SDS011;873;47.696;8.068;2023-07-02T09:49:36;10.37;;;5.47;;
1751;SDS011;873;47.696;8.068;2023-07-02T09:52:04;9.20;;;5.07;;
1751;SDS011;873;47.696;8.068;2023-07-02T09:54:34;7.67;;;5.40;;
1751;SDS011;873;47.696;8.068;2023-07-02T09:57:00;13.23;;;5.13;;
1751;SDS011;873;47.696;8.068;2023-07-02T09:59:27;7.27;;;4.37;;
1751;SDS011;873;47.696;8.068;2023-07-02T10:01:52;6.93;;;4.20;;
1751;SDS011;873;47.696;8.068;2023-07-02T10:04:19;10.27;;;4.73;;
1751;SDS011;873;47.696;8.068;2023-07-02T10:06:46;8.57;;;4.23;;
1751;SDS011;873;47.696;8.068;2023-07-02T10:09:12;7.60;;;4.43;;
1751;SDS011;873;47.696;8.068;2023-07-02T10:11:37;11.40;;;5.10;;
1751;SDS011;873;47.696;8.068;2023-07-02T10:14:03;9.53;;;4.80;;
1751;SDS011;873;47.696;8.068;2023-07-02T10:16:28;8.10;;;4.67;;
1751;SDS011;873;47.696;8.068;2023-07-02T10:19:21;8.60;;;4.23;;
1751;SDS011;873;47.696;8.068;2023-07-02T10:21:42;8.60;;;4.07;;
1751;SDS011;873;47.696;8.068;2023-07-02T10:24:09;10.77;;;4.27;;
1751;SDS011;873;47.696;8.068;2023-07-02T10:26:36;10.57;;;5.13;;
1751;SDS011;873;47.696;8.068;2023-07-02T10:29:01;9.23;;;4.50;;
1751;SDS011;873;47.696;8.068;2023-07-02T10:31:27;10.70;;;4.13;;
1751;SDS011;873;47.696;8.068;2023-07-02T10:33:53;7.67;;;3.83;;
1751;SDS011;873;47.696;8.068;2023-07-02T10:36:20;9.93;;;4.37;;
1751;SDS011;873;47.696;8.068;2023-07-02T10:38:48;10.20;;;4.30;;
1751;SDS011;873;47.696;8.068;2023-07-02T10:41:30;9.43;;;4.43;;
1751;SDS011;873;47.696;8.068;2023-07-02T10:44:11;8.37;;;3.97;;
1751;SDS011;873;47.696;8.068;2023-07-02T10:46:45;12.67;;;4.93;;
1751;SDS011;873;47.696;8.068;2023-07-02T10:49:11;7.70;;;4.10;;
1751;SDS011;873;47.696;8.068;2023-07-02T10:51:38;7.77;;;4.33;;
1751;SDS011;873;47.696;8.068;2023-07-02T10:54:06;7.77;;;4.33;;
1751;SDS011;873;47.696;8.068;2023-07-02T10:56:32;7.97;;;4.37;;
1751;SDS011;873;47.696;8.068;2023-07-02T10:58:58;7.70;;;4.17;;
1751;SDS011;873;47.696;8.068;2023-07-02T11:01:26;6.30;;;4.17;;
1751;SDS011;873;47.696;8.068;2023-07-02T11:04:01;10.33;;;4.57;;
1751;SDS011;873;47.696;8.068;2023-07-02T11:06:30;6.87;;;4.70;;
1751;SDS011;873;47.696;8.068;2023-07-02T11:08:57;9.30;;;4.53;;
1751;SDS011;873;47.696;8.068;2023-07-02T11:11:23;10.43;;;3.93;;
1751;SDS011;873;47.696;8.068;2023-07-02T11:13:50;5.90;;;3.50;;
1751;SDS011;873;47.696;8.068;2023-07-02T11:16:18;5.93;;;3.67;;
1751;SDS011;873;47.696;8.068;2023-07-02T11:19:12;5.23;;;3.63;;
1751;SDS011;873;47.696;8.068;2023-07-02T11:21:38;6.43;;;3.60;;
1751;SDS011;873;47.696;8.068;2023-07-02T11:24:05;5.67;;;3.00;;
1751;SDS011;873;47.696;8.068;2023-07-02T11:26:39;7.10;;;3.30;;
1751;SDS011;873;47.696;8.068;2023-07-02T11:29:07;6.27;;;3.73;;
1751;SDS011;873;47.696;8.068;2023-07-02T11:31:35;5.40;;;3.40;;
1751;SDS011;873;47.696;8.068;2023-07-02T11:34:05;4.93;;;3.50;;
1751;SDS011;873;47.696;8.068;2023-07-02T11:36:36;4.43;;;3.30;;
1751;SDS011;873;47.696;8.068;2023-07-02T11:39:02;4.63;;;2.87;;
1751;SDS011;873;47.696;8.068;2023-07-02T11:41:36;7.37;;;3.47;;
1751;SDS011;873;47.696;8.068;2023-07-02T11:44:03;6.93;;;3.70;;
1751;SDS011;873;47.696;8.068;2023-07-02T11:46:28;6.60;;;3.27;;
1751;SDS011;873;47.696;8.068;2023-07-02T11:48:54;4.27;;;3.47;;
1751;SDS011;873;47.696;8.068;2023-07-02T11:51:19;6.27;;;3.40;;
1751;SDS011;873;47.696;8.068;2023-07-02T11:53:45;4.97;;;3.30;;
1751;SDS011;873;47.696;8.068;2023-07-02T11:56:10;7.53;;;4.00;;
1751;SDS011;873;47.696;8.068;2023-07-02T11:58:38;7.23;;;3.80;;
1751;SDS011;873;47.696;8.068;2023-07-02T12:01:04;9.47;;;3.33;;
1751;SDS011;873;47.696;8.068;2023-07-02T12:03:29;6.50;;;2.97;;
1751;SDS011;873;47.696;8.068;2023-07-02T12:05:55;6.77;;;3.20;;
1751;SDS011;873;47.696;8.068;2023-07-02T12:08:21;6.67;;;3.37;;
1751;SDS011;873;47.696;8.068;2023-07-02T12:10:47;7.63;;;4.23;;
1751;SDS011;873;47.696;8.068;2023-07-02T12:13:13;4.70;;;3.13;;
1751;SDS011;873;47.696;8.068;2023-07-02T12:15:38;4.67;;;3.10;;
1751;SDS011;873;47.696;8.068;2023-07-02T12:18:04;5.80;;;2.87;;
1751;SDS011;873;47.696;8.068;2023-07-02T12:20:30;5.47;;;3.20;;
1751;SDS011;873;47.696;8.068;2023-07-02T12:22:56;6.07;;;2.90;;
1751;SDS011;873;47.696;8.068;2023-07-02T12:25:22;5.77;;;2.97;;
1751;SDS011;873;47.696;8.068;2023-07-02T12:27:47;5.73;;;2.73;;
1751;SDS011;873;47.696;8.068;2023-07-02T12:30:13;4.67;;;2.70;;
1751;SDS011;873;47.696;8.068;2023-07-02T12:32:42;5.23;;;2.90;;
1751;SDS011;873;47.696;8.068;2023-07-02T12:35:08;4.53;;;2.90;;
1751;SDS011;873;47.696;8.068;2023-07-02T12:37:34;4.43;;;3.03;;
1751;SDS011;873;47.696;8.068;2023-07-02T12:39:59;4.73;;;2.87;;
1751;SDS011;873;47.696;8.068;2023-07-02T12:42:25;4.13;;;2.97;;
1751;SDS011;873;47.696;8.068;2023-07-02T12:44:51;5.87;;;3.33;;
1751;SDS011;873;47.696;8.068;2023-07-02T12:47:16;4.20;;;3.03;;
1751;SDS011;873;47.696;8.068;2023-07-02T12:49:42;5.93;;;3.03;;
1751;SDS011;873;47.696;8.068;2023-07-02T12:52:09;3.97;;;3.17;;
1751;SDS011;873;47.696;8.068;2023-07-02T12:54:35;4.07;;;2.63;;
1751;SDS011;873;47.696;8.068;2023-07-02T12:57:00;4.80;;;3.20;;
1751;SDS011;873;47.696;8.068;2023-07-02T12:59:26;3.77;;;2.40;;
1751;SDS011;873;47.696;8.068;2023-07-02T13:01:52;3.50;;;2.73;;
1751;SDS011;873;47.696;8.068;2023-07-02T13:04:17;5.97;;;2.90;;
1751;SDS011;873;47.696;8.068;2023-07-02T13:06:43;5.60;;;2.80;;
1751;SDS011;873;47.696;8.068;2023-07-02T13:09:10;3.83;;;2.40;;
1751;SDS011;873;47.696;8.068;2023-07-02T13:11:36;4.60;;;3.20;;
1751;SDS011;873;47.696;8.068;2023-07-02T13:14:03;5.97;;;3.00;;
1751;SDS011;873;47.696;8.068;2023-07-02T13:16:28;3.73;;;2.80;;
1751;SDS011;873;47.696;8.068;2023-07-02T13:18:55;4.23;;;2.60;;
1751;SDS011;873;47.696;8.068;2023-07-02T13:21:22;3.93;;;2.77;;
1751;SDS011;873;47.696;8.068;2023-07-02T13:23:48;5.03;;;3.40;;
1751;SDS011;873;47.696;8.068;2023-07-02T13:26:14;3.77;;;2.57;;
1751;SDS011;873;47.696;8.068;2023-07-02T13:28:40;5.20;;;2.70;;
1751;SDS011;873;47.696;8.068;2023-07-02T13:31:06;3.67;;;2.33;;
1751;SDS011;873;47.696;8.068;2023-07-02T13:33:33;4.30;;;2.93;;
1751;SDS011;873;47.696;8.068;2023-07-02T13:36:02;4.57;;;2.80;;
1751;SDS011;873;47.696;8.068;2023-07-02T13:38:48;3.63;;;2.27;;
1751;SDS011;873;47.696;8.068;2023-07-02T13:41:13;4.90;;;3.00;;
1751;SDS011;873;47.696;8.068;2023-07-02T13:43:39;3.67;;;2.77;;
1751;SDS011;873;47.696;8.068;2023-07-02T13:46:05;4.57;;;2.80;;
1751;SDS011;873;47.696;8.068;2023-07-02T13:48:30;7.10;;;3.03;;
1751;SDS011;873;47.696;8.068;2023-07-02T13:50:56;5.13;;;2.80;;
1751;SDS011;873;47.696;8.068;2023-07-02T13:53:22;6.33;;;2.90;;
1751;SDS011;873;47.696;8.068;2023-07-02T13:55:47;3.00;;;2.50;;
1751;SDS011;873;47.696;8.068;2023-07-02T13:58:13;4.23;;;2.70;;
1751;SDS011;873;47.696;8.068;2023-07-02T14:00:39;5.30;;;2.80;;
1751;SDS011;873;47.696;8.068;2023-07-02T14:03:05;6.70;;;3.30;;
1751;SDS011;873;47.696;8.068;2023-07-02T14:05:31;6.07;;;3.90;;
1751;SDS011;873;47.696;8.068;2023-07-02T14:07:57;5.50;;;3.13;;
1751;SDS011;873;47.696;8.068;2023-07-02T14:10:23;6.87;;;3.23;;
1751;SDS011;873;47.696;8.068;2023-07-02T14:12:48;4.30;;;3.30;;
1751;SDS011;873;47.696;8.068;2023-07-02T14:15:15;6.33;;;3.03;;
1751;SDS011;873;47.696;8.068;2023-07-02T14:17:41;7.00;;;3.87;;
1751;SDS011;873;47.696;8.068;2023-07-02T14:20:07;7.33;;;4.10;;
1751;SDS011;873;47.696;8.068;2023-07-02T14:22:33;5.30;;;3.40;;
1751;SDS011;873;47.696;8.068;2023-07-02T14:24:59;4.60;;;3.40;;
1751;SDS011;873;47.696;8.068;2023-07-02T14:27:24;6.37;;;4.17;;
1751;SDS011;873;47.696;8.068;2023-07-02T14:29:50;5.13;;;3.77;;
1751;SDS011;873;47.696;8.068;2023-07-02T14:32:16;5.83;;;4.07;;
1751;SDS011;873;47.696;8.068;2023-07-02T14:34:41;6.87;;;4.27;;
1751;SDS011;873;47.696;8.068;2023-07-02T14:37:07;7.20;;;3.77;;
1751;SDS011;873;47.696;8.068;2023-07-02T14:39:33;6.43;;;3.63;;
1751;SDS011;873;47.696;8.068;2023-07-02T14:41:59;8.47;;;4.93;;
1751;SDS011;873;47.696;8.068;2023-07-02T14:44:25;6.67;;;4.10;;
1751;SDS011;873;47.696;8.068;2023-07-02T14:46:50;5.80;;;3.47;;
1751;SDS011;873;47.696;8.068;2023-07-02T14:49:16;5.27;;;3.83;;
1751;SDS011;873;47.696;8.068;2023-07-02T14:51:42;6.67;;;3.93;;
1751;SDS011;873;47.696;8.068;2023-07-02T14:54:09;7.87;;;4.17;;
1751;SDS011;873;47.696;8.068;2023-07-02T14:56:35;8.53;;;4.37;;
1751;SDS011;873;47.696;8.068;2023-07-02T14:59:02;7.73;;;4.13;;
1751;SDS011;873;47.696;8.068;2023-07-02T15:01:28;6.93;;;4.13;;
1751;SDS011;873;47.696;8.068;2023-07-02T15:03:54;7.20;;;3.73;;
1751;SDS011;873;47.696;8.068;2023-07-02T15:06:20;6.60;;;4.00;;
1751;SDS011;873;47.696;8.068;2023-07-02T15:08:46;6.23;;;4.30;;
1751;SDS011;873;47.696;8.068;2023-07-02T15:11:13;7.83;;;4.73;;
1751;SDS011;873;47.696;8.068;2023-07-02T15:13:40;6.53;;;4.40;;
1751;SDS011;873;47.696;8.068;2023-07-02T15:16:07;6.07;;;4.47;;
1751;SDS011;873;47.696;8.068;2023-07-02T15:18:33;6.90;;;4.60;;
1751;SDS011;873;47.696;8.068;2023-07-02T15:20:59;6.87;;;4.90;;
1751;SDS011;873;47.696;8.068;2023-07-02T15:23:26;6.93;;;4.37;;
1751;SDS011;873;47.696;8.068;2023-07-02T15:25:54;8.70;;;4.67;;
1751;SDS011;873;47.696;8.068;2023-07-02T15:28:21;8.43;;;4.50;;